sensor_id;sensor_type;location;lat;lon;timestamp;P1;durP1;ratioP1;P2;durP2;ratioP2
53010;SDS011;42803;55.762;38.084;2023-08-17T00:00:48;12.20;;;6.82;;
53010;SDS011;42803;55.762;38.084;2023-08-17T00:03:19;11.35;;;7.47;;
53010;SDS011;42803;55.762;38.084;2023-08-17T00:05:48;13.18;;;7.18;;
53010;SDS011;42803;55.762;38.084;2023-08-17T00:08:17;14.00;;;6.40;;
53010;SDS011;42803;55.762;38.084;2023-08-17T00:10:46;11.65;;;7.10;;
53010;SDS011;42803;55.762;38.084;2023-08-17T00:13:15;14.45;;;6.82;;
53010;SDS011;42803;55.762;38.084;2023-08-17T00:15:44;14.65;;;6.97;;
53010;SDS011;42803;55.762;38.084;2023-08-17T00:18:15;13.02;;;6.55;;
53010;SDS011;42803;55.762;38.084;2023-08-17T00:20:46;12.70;;;6.32;;
53010;SDS011;42803;55.762;38.084;2023-08-17T00:23:15;11.57;;;7.13;;
53010;SDS011;42803;55.762;38.084;2023-08-17T00:25:44;16.90;;;7.32;;
53010;SDS011;42803;55.762;38.084;2023-08-17T00:28:15;9.70;;;6.78;;
53010;SDS011;42803;55.762;38.084;2023-08-17T00:30:45;11.70;;;6.90;;
53010;SDS011;42803;55.762;38.084;2023-08-17T00:33:14;15.30;;;7.22;;
53010;SDS011;42803;55.762;38.084;2023-08-17T00:35:44;12.93;;;7.55;;
53010;SDS011;42803;55.762;38.084;2023-08-17T00:38:14;14.68;;;6.97;;
53010;SDS011;42803;55.762;38.084;2023-08-17T00:40:44;13.25;;;6.47;;
53010;SDS011;42803;55.762;38.084;2023-08-17T00:43:14;16.48;;;7.07;;
53010;SDS011;42803;55.762;38.084;2023-08-17T00:45:43;13.40;;;7.03;;
53010;SDS011;42803;55.762;38.084;2023-08-17T00:48:15;13.90;;;7.63;;
53010;SDS011;42803;55.762;38.084;2023-08-17T00:50:45;12.82;;;6.90;;
53010;SDS011;42803;55.762;38.084;2023-08-17T00:53:17;11.48;;;7.25;;
53010;SDS011;42803;55.762;38.084;2023-08-17T00:55:50;16.95;;;7.63;;
53010;SDS011;42803;55.762;38.084;2023-08-17T00:58:21;17.13;;;8.60;;
53010;SDS011;42803;55.762;38.084;2023-08-17T01:00:51;17.38;;;8.20;;
53010;SDS011;42803;55.762;38.084;2023-08-17T01:03:20;14.25;;;9.15;;
53010;SDS011;42803;55.762;38.084;2023-08-17T01:05:53;16.20;;;8.70;;
53010;SDS011;42803;55.762;38.084;2023-08-17T01:08:23;17.15;;;9.27;;
53010;SDS011;42803;55.762;38.084;2023-08-17T01:10:57;14.70;;;8.57;;
53010;SDS011;42803;55.762;38.084;2023-08-17T01:13:32;15.88;;;8.98;;
53010;SDS011;42803;55.762;38.084;2023-08-17T01:16:05;18.80;;;10.50;;
53010;SDS011;42803;55.762;38.084;2023-08-17T01:18:39;17.30;;;8.77;;
53010;SDS011;42803;55.762;38.084;2023-08-17T01:21:11;15.80;;;9.50;;
53010;SDS011;42803;55.762;38.084;2023-08-17T01:23:48;19.63;;;9.73;;
53010;SDS011;42803;55.762;38.084;2023-08-17T01:26:18;16.77;;;10.30;;
53010;SDS011;42803;55.762;38.084;2023-08-17T01:28:47;21.83;;;8.98;;
53010;SDS011;42803;55.762;38.084;2023-08-17T01:31:18;17.50;;;9.10;;
53010;SDS011;42803;55.762;38.084;2023-08-17T01:33:50;15.68;;;8.35;;
53010;SDS011;42803;55.762;38.084;2023-08-17T01:36:27;16.85;;;8.98;;
53010;SDS011;42803;55.762;38.084;2023-08-17T01:39:02;17.92;;;8.90;;
53010;SDS011;42803;55.762;38.084;2023-08-17T01:41:34;14.10;;;8.23;;
53010;SDS011;42803;55.762;38.084;2023-08-17T01:44:04;13.90;;;7.82;;
53010;SDS011;42803;55.762;38.084;2023-08-17T01:46:34;14.80;;;7.63;;
53010;SDS011;42803;55.762;38.084;2023-08-17T01:49:03;16.08;;;7.95;;
53010;SDS011;42803;55.762;38.084;2023-08-17T01:51:33;18.58;;;8.95;;
53010;SDS011;42803;55.762;38.084;2023-08-17T01:54:03;14.38;;;8.30;;
53010;SDS011;42803;55.762;38.084;2023-08-17T01:56:33;14.82;;;7.95;;
53010;SDS011;42803;55.762;38.084;2023-08-17T01:59:02;15.18;;;7.43;;
53010;SDS011;42803;55.762;38.084;2023-08-17T02:01:31;15.73;;;8.63;;
53010;SDS011;42803;55.762;38.084;2023-08-17T02:04:03;18.33;;;8.27;;
53010;SDS011;42803;55.762;38.084;2023-08-17T02:06:33;13.02;;;7.97;;
53010;SDS011;42803;55.762;38.084;2023-08-17T02:09:04;20.70;;;8.10;;
53010;SDS011;42803;55.762;38.084;2023-08-17T02:11:33;14.05;;;8.35;;
53010;SDS011;42803;55.762;38.084;2023-08-17T02:14:02;16.80;;;8.10;;
53010;SDS011;42803;55.762;38.084;2023-08-17T02:16:32;14.40;;;7.93;;
53010;SDS011;42803;55.762;38.084;2023-08-17T02:19:01;14.23;;;7.72;;
53010;SDS011;42803;55.762;38.084;2023-08-17T02:21:30;13.73;;;7.65;;
53010;SDS011;42803;55.762;38.084;2023-08-17T02:24:01;15.20;;;7.38;;
53010;SDS011;42803;55.762;38.084;2023-08-17T02:26:31;10.63;;;6.47;;
53010;SDS011;42803;55.762;38.084;2023-08-17T02:29:00;15.93;;;7.68;;
53010;SDS011;42803;55.762;38.084;2023-08-17T02:31:29;11.52;;;6.82;;
53010;SDS011;42803;55.762;38.084;2023-08-17T02:33:58;12.75;;;7.30;;
53010;SDS011;42803;55.762;38.084;2023-08-17T02:36:33;13.53;;;7.20;;
53010;SDS011;42803;55.762;38.084;2023-08-17T02:39:02;10.85;;;6.43;;
53010;SDS011;42803;55.762;38.084;2023-08-17T02:41:33;13.00;;;6.57;;
53010;SDS011;42803;55.762;38.084;2023-08-17T02:44:02;9.35;;;6.57;;
53010;SDS011;42803;55.762;38.084;2023-08-17T02:46:31;14.23;;;6.75;;
53010;SDS011;42803;55.762;38.084;2023-08-17T02:49:01;10.35;;;5.80;;
53010;SDS011;42803;55.762;38.084;2023-08-17T02:51:30;8.98;;;6.13;;
53010;SDS011;42803;55.762;38.084;2023-08-17T02:53:59;9.32;;;5.65;;
53010;SDS011;42803;55.762;38.084;2023-08-17T02:56:28;11.98;;;5.93;;
53010;SDS011;42803;55.762;38.084;2023-08-17T02:58:59;12.77;;;6.03;;
53010;SDS011;42803;55.762;38.084;2023-08-17T03:01:28;7.90;;;5.72;;
53010;SDS011;42803;55.762;38.084;2023-08-17T03:03:58;12.18;;;6.13;;
53010;SDS011;42803;55.762;38.084;2023-08-17T03:06:28;14.98;;;6.50;;
53010;SDS011;42803;55.762;38.084;2023-08-17T03:08:58;11.45;;;6.35;;
53010;SDS011;42803;55.762;38.084;2023-08-17T03:11:27;8.85;;;5.00;;
53010;SDS011;42803;55.762;38.084;2023-08-17T03:13:56;11.35;;;5.97;;
53010;SDS011;42803;55.762;38.084;2023-08-17T03:16:30;15.73;;;6.25;;
53010;SDS011;42803;55.762;38.084;2023-08-17T03:19:00;10.88;;;5.55;;
53010;SDS011;42803;55.762;38.084;2023-08-17T03:21:29;12.73;;;5.93;;
53010;SDS011;42803;55.762;38.084;2023-08-17T03:23:59;10.18;;;6.05;;
53010;SDS011;42803;55.762;38.084;2023-08-17T03:26:28;9.65;;;5.50;;
53010;SDS011;42803;55.762;38.084;2023-08-17T03:28:58;9.57;;;5.15;;
53010;SDS011;42803;55.762;38.084;2023-08-17T03:31:27;9.23;;;5.38;;
53010;SDS011;42803;55.762;38.084;2023-08-17T03:33:58;12.93;;;6.07;;
53010;SDS011;42803;55.762;38.084;2023-08-17T03:36:28;8.13;;;4.65;;
53010;SDS011;42803;55.762;38.084;2023-08-17T03:38:57;11.65;;;5.22;;
53010;SDS011;42803;55.762;38.084;2023-08-17T03:41:26;8.25;;;4.50;;
53010;SDS011;42803;55.762;38.084;2023-08-17T03:43:57;10.85;;;4.75;;
53010;SDS011;42803;55.762;38.084;2023-08-17T03:46:26;9.48;;;5.03;;
53010;SDS011;42803;55.762;38.084;2023-08-17T03:48:55;7.43;;;4.25;;
53010;SDS011;42803;55.762;38.084;2023-08-17T03:51:26;10.55;;;4.20;;
53010;SDS011;42803;55.762;38.084;2023-08-17T03:53:55;7.55;;;4.90;;
53010;SDS011;42803;55.762;38.084;2023-08-17T03:56:25;12.63;;;4.93;;
53010;SDS011;42803;55.762;38.084;2023-08-17T03:58:54;9.48;;;4.05;;
53010;SDS011;42803;55.762;38.084;2023-08-17T04:01:23;10.70;;;4.25;;
53010;SDS011;42803;55.762;38.084;2023-08-17T04:03:52;10.00;;;4.70;;
53010;SDS011;42803;55.762;38.084;2023-08-17T04:06:22;8.55;;;4.70;;
53010;SDS011;42803;55.762;38.084;2023-08-17T04:08:52;6.30;;;4.45;;
53010;SDS011;42803;55.762;38.084;2023-08-17T04:11:22;7.47;;;4.03;;
53010;SDS011;42803;55.762;38.084;2023-08-17T04:13:52;6.10;;;4.15;;
53010;SDS011;42803;55.762;38.084;2023-08-17T04:16:21;7.70;;;4.15;;
53010;SDS011;42803;55.762;38.084;2023-08-17T04:18:50;6.45;;;4.45;;
53010;SDS011;42803;55.762;38.084;2023-08-17T04:21:19;6.75;;;3.83;;
53010;SDS011;42803;55.762;38.084;2023-08-17T04:23:49;6.78;;;4.10;;
53010;SDS011;42803;55.762;38.084;2023-08-17T04:26:21;4.68;;;3.42;;
53010;SDS011;42803;55.762;38.084;2023-08-17T04:28:51;5.93;;;3.72;;
53010;SDS011;42803;55.762;38.084;2023-08-17T04:31:21;7.18;;;3.75;;
53010;SDS011;42803;55.762;38.084;2023-08-17T04:33:57;10.25;;;3.50;;
53010;SDS011;42803;55.762;38.084;2023-08-17T04:36:27;5.70;;;3.28;;
53010;SDS011;42803;55.762;38.084;2023-08-17T04:38:57;5.10;;;3.67;;
53010;SDS011;42803;55.762;38.084;2023-08-17T04:41:27;8.27;;;3.70;;
53010;SDS011;42803;55.762;38.084;2023-08-17T04:43:57;8.93;;;3.38;;
53010;SDS011;42803;55.762;38.084;2023-08-17T04:46:26;7.28;;;3.65;;
53010;SDS011;42803;55.762;38.084;2023-08-17T04:48:55;6.60;;;3.60;;
53010;SDS011;42803;55.762;38.084;2023-08-17T04:51:24;4.97;;;3.55;;
53010;SDS011;42803;55.762;38.084;2023-08-17T04:53:55;7.78;;;4.43;;
53010;SDS011;42803;55.762;38.084;2023-08-17T04:56:25;8.38;;;4.00;;
53010;SDS011;42803;55.762;38.084;2023-08-17T04:58:56;8.10;;;3.50;;
53010;SDS011;42803;55.762;38.084;2023-08-17T05:01:26;6.15;;;3.53;;
53010;SDS011;42803;55.762;38.084;2023-08-17T05:03:55;6.65;;;3.53;;
53010;SDS011;42803;55.762;38.084;2023-08-17T05:06:24;6.75;;;3.15;;
53010;SDS011;42803;55.762;38.084;2023-08-17T05:08:56;5.65;;;3.40;;
53010;SDS011;42803;55.762;38.084;2023-08-17T05:11:26;6.13;;;3.00;;
53010;SDS011;42803;55.762;38.084;2023-08-17T05:13:57;9.88;;;3.42;;
53010;SDS011;42803;55.762;38.084;2023-08-17T05:16:26;3.90;;;2.65;;
53010;SDS011;42803;55.762;38.084;2023-08-17T05:18:56;7.18;;;2.92;;
53010;SDS011;42803;55.762;38.084;2023-08-17T05:21:27;6.88;;;3.30;;
53010;SDS011;42803;55.762;38.084;2023-08-17T05:23:57;6.85;;;3.40;;
53010;SDS011;42803;55.762;38.084;2023-08-17T05:26:26;4.15;;;2.83;;
53010;SDS011;42803;55.762;38.084;2023-08-17T05:28:56;6.38;;;2.92;;
53010;SDS011;42803;55.762;38.084;2023-08-17T05:31:26;3.22;;;2.80;;
53010;SDS011;42803;55.762;38.084;2023-08-17T05:33:56;6.32;;;3.13;;
53010;SDS011;42803;55.762;38.084;2023-08-17T05:36:25;4.30;;;2.90;;
53010;SDS011;42803;55.762;38.084;2023-08-17T05:38:54;6.57;;;3.03;;
53010;SDS011;42803;55.762;38.084;2023-08-17T05:41:23;5.28;;;2.90;;
53010;SDS011;42803;55.762;38.084;2023-08-17T05:43:53;7.75;;;2.33;;
53010;SDS011;42803;55.762;38.084;2023-08-17T05:46:23;6.13;;;2.55;;
53010;SDS011;42803;55.762;38.084;2023-08-17T05:48:52;3.78;;;2.63;;
53010;SDS011;42803;55.762;38.084;2023-08-17T05:51:22;5.63;;;2.47;;
53010;SDS011;42803;55.762;38.084;2023-08-17T05:53:51;6.53;;;2.58;;
53010;SDS011;42803;55.762;38.084;2023-08-17T05:56:20;6.05;;;2.95;;
53010;SDS011;42803;55.762;38.084;2023-08-17T05:58:50;3.70;;;2.50;;
53010;SDS011;42803;55.762;38.084;2023-08-17T06:01:19;5.30;;;2.60;;
53010;SDS011;42803;55.762;38.084;2023-08-17T06:03:49;5.90;;;2.60;;
53010;SDS011;42803;55.762;38.084;2023-08-17T06:06:19;3.42;;;2.38;;
53010;SDS011;42803;55.762;38.084;2023-08-17T06:08:48;3.85;;;2.40;;
53010;SDS011;42803;55.762;38.084;2023-08-17T06:11:17;3.35;;;2.47;;
53010;SDS011;42803;55.762;38.084;2023-08-17T06:13:47;5.60;;;2.90;;
53010;SDS011;42803;55.762;38.084;2023-08-17T06:16:16;4.55;;;2.28;;
53010;SDS011;42803;55.762;38.084;2023-08-17T06:18:45;3.25;;;2.30;;
53010;SDS011;42803;55.762;38.084;2023-08-17T06:21:16;3.28;;;2.13;;
53010;SDS011;42803;55.762;38.084;2023-08-17T06:23:45;4.75;;;2.13;;
53010;SDS011;42803;55.762;38.084;2023-08-17T06:26:14;1.88;;;1.67;;
53010;SDS011;42803;55.762;38.084;2023-08-17T06:28:44;3.47;;;1.90;;
53010;SDS011;42803;55.762;38.084;2023-08-17T06:31:14;3.15;;;1.60;;
53010;SDS011;42803;55.762;38.084;2023-08-17T06:33:44;4.45;;;1.80;;
53010;SDS011;42803;55.762;38.084;2023-08-17T06:36:13;3.08;;;1.70;;
53010;SDS011;42803;55.762;38.084;2023-08-17T06:38:45;2.63;;;1.60;;
53010;SDS011;42803;55.762;38.084;2023-08-17T06:41:15;3.47;;;1.80;;
53010;SDS011;42803;55.762;38.084;2023-08-17T06:43:44;2.20;;;1.88;;
53010;SDS011;42803;55.762;38.084;2023-08-17T06:46:13;3.92;;;1.73;;
53010;SDS011;42803;55.762;38.084;2023-08-17T06:48:43;3.28;;;1.90;;
53010;SDS011;42803;55.762;38.084;2023-08-17T06:51:12;3.25;;;1.70;;
53010;SDS011;42803;55.762;38.084;2023-08-17T06:53:41;3.22;;;1.52;;
53010;SDS011;42803;55.762;38.084;2023-08-17T06:56:12;2.67;;;1.52;;
53010;SDS011;42803;55.762;38.084;2023-08-17T06:58:41;2.40;;;1.60;;
53010;SDS011;42803;55.762;38.084;2023-08-17T07:01:10;3.40;;;1.33;;
53010;SDS011;42803;55.762;38.084;2023-08-17T07:03:40;4.05;;;1.52;;
53010;SDS011;42803;55.762;38.084;2023-08-17T07:06:09;3.50;;;2.08;;
53010;SDS011;42803;55.762;38.084;2023-08-17T07:08:38;2.97;;;1.67;;
53010;SDS011;42803;55.762;38.084;2023-08-17T07:11:08;3.13;;;1.67;;
53010;SDS011;42803;55.762;38.084;2023-08-17T07:13:38;1.58;;;1.33;;
53010;SDS011;42803;55.762;38.084;2023-08-17T07:16:08;4.35;;;1.70;;
53010;SDS011;42803;55.762;38.084;2023-08-17T07:18:37;4.57;;;1.50;;
53010;SDS011;42803;55.762;38.084;2023-08-17T07:21:06;4.05;;;1.45;;
53010;SDS011;42803;55.762;38.084;2023-08-17T07:23:36;3.80;;;1.88;;
53010;SDS011;42803;55.762;38.084;2023-08-17T07:26:05;3.72;;;1.42;;
53010;SDS011;42803;55.762;38.084;2023-08-17T07:28:38;3.70;;;1.55;;
53010;SDS011;42803;55.762;38.084;2023-08-17T07:31:08;2.28;;;1.20;;
53010;SDS011;42803;55.762;38.084;2023-08-17T07:33:37;2.13;;;1.13;;
53010;SDS011;42803;55.762;38.084;2023-08-17T07:36:07;4.07;;;1.75;;
53010;SDS011;42803;55.762;38.084;2023-08-17T07:38:36;3.03;;;1.27;;
53010;SDS011;42803;55.762;38.084;2023-08-17T07:41:06;2.88;;;1.75;;
53010;SDS011;42803;55.762;38.084;2023-08-17T07:43:35;1.80;;;1.17;;
53010;SDS011;42803;55.762;38.084;2023-08-17T07:46:06;3.60;;;1.27;;
53010;SDS011;42803;55.762;38.084;2023-08-17T07:48:35;3.50;;;1.48;;
53010;SDS011;42803;55.762;38.084;2023-08-17T07:51:04;4.18;;;1.42;;
53010;SDS011;42803;55.762;38.084;2023-08-17T07:53:33;4.68;;;1.60;;
53010;SDS011;42803;55.762;38.084;2023-08-17T07:56:04;4.53;;;1.67;;
53010;SDS011;42803;55.762;38.084;2023-08-17T07:58:38;5.93;;;1.65;;
53010;SDS011;42803;55.762;38.084;2023-08-17T08:01:09;3.00;;;1.60;;
53010;SDS011;42803;55.762;38.084;2023-08-17T08:03:38;3.25;;;1.70;;
53010;SDS011;42803;55.762;38.084;2023-08-17T08:06:08;1.98;;;1.60;;
53010;SDS011;42803;55.762;38.084;2023-08-17T08:08:37;4.22;;;1.60;;
53010;SDS011;42803;55.762;38.084;2023-08-17T08:11:06;2.70;;;1.27;;
53010;SDS011;42803;55.762;38.084;2023-08-17T08:13:35;3.83;;;1.45;;
53010;SDS011;42803;55.762;38.084;2023-08-17T08:16:05;2.95;;;1.50;;
53010;SDS011;42803;55.762;38.084;2023-08-17T08:18:36;1.92;;;1.10;;
53010;SDS011;42803;55.762;38.084;2023-08-17T08:21:05;4.43;;;1.45;;
53010;SDS011;42803;55.762;38.084;2023-08-17T08:23:34;4.88;;;1.65;;
53010;SDS011;42803;55.762;38.084;2023-08-17T08:26:04;5.93;;;1.52;;
53010;SDS011;42803;55.762;38.084;2023-08-17T08:28:33;4.60;;;1.65;;
53010;SDS011;42803;55.762;38.084;2023-08-17T08:31:02;2.15;;;1.40;;
53010;SDS011;42803;55.762;38.084;2023-08-17T08:33:32;3.22;;;1.40;;
53010;SDS011;42803;55.762;38.084;2023-08-17T08:36:02;4.35;;;1.20;;
53010;SDS011;42803;55.762;38.084;2023-08-17T08:38:33;4.05;;;1.42;;
53010;SDS011;42803;55.762;38.084;2023-08-17T08:41:03;2.40;;;1.50;;
53010;SDS011;42803;55.762;38.084;2023-08-17T08:43:32;4.13;;;1.38;;
53010;SDS011;42803;55.762;38.084;2023-08-17T08:46:01;1.27;;;1.17;;
53010;SDS011;42803;55.762;38.084;2023-08-17T08:48:31;1.85;;;1.27;;
53010;SDS011;42803;55.762;38.084;2023-08-17T08:51:02;2.85;;;1.50;;
53010;SDS011;42803;55.762;38.084;2023-08-17T08:53:37;3.80;;;2.05;;
53010;SDS011;42803;55.762;38.084;2023-08-17T08:56:08;3.60;;;1.85;;
53010;SDS011;42803;55.762;38.084;2023-08-17T08:58:40;3.00;;;1.95;;
53010;SDS011;42803;55.762;38.084;2023-08-17T09:01:11;2.30;;;1.50;;
53010;SDS011;42803;55.762;38.084;2023-08-17T09:03:42;2.45;;;1.67;;
53010;SDS011;42803;55.762;38.084;2023-08-17T09:06:15;3.33;;;1.83;;
53010;SDS011;42803;55.762;38.084;2023-08-17T09:08:45;3.63;;;2.10;;
53010;SDS011;42803;55.762;38.084;2023-08-17T09:11:17;3.92;;;1.90;;
53010;SDS011;42803;55.762;38.084;2023-08-17T09:13:46;3.92;;;1.70;;
53010;SDS011;42803;55.762;38.084;2023-08-17T09:16:20;3.80;;;2.05;;
53010;SDS011;42803;55.762;38.084;2023-08-17T09:18:52;3.33;;;1.65;;
53010;SDS011;42803;55.762;38.084;2023-08-17T09:21:23;5.18;;;1.70;;
53010;SDS011;42803;55.762;38.084;2023-08-17T09:23:53;4.15;;;1.90;;
53010;SDS011;42803;55.762;38.084;2023-08-17T09:26:30;3.90;;;1.60;;
53010;SDS011;42803;55.762;38.084;2023-08-17T09:29:00;2.80;;;1.73;;
53010;SDS011;42803;55.762;38.084;2023-08-17T09:31:44;2.65;;;1.42;;
53010;SDS011;42803;55.762;38.084;2023-08-17T09:34:14;6.03;;;1.55;;
53010;SDS011;42803;55.762;38.084;2023-08-17T09:36:46;2.38;;;1.60;;
53010;SDS011;42803;55.762;38.084;2023-08-17T09:39:16;4.03;;;1.70;;
53010;SDS011;42803;55.762;38.084;2023-08-17T09:41:45;3.28;;;1.88;;
53010;SDS011;42803;55.762;38.084;2023-08-17T09:44:15;2.20;;;1.58;;
53010;SDS011;42803;55.762;38.084;2023-08-17T09:46:45;1.60;;;1.50;;
53010;SDS011;42803;55.762;38.084;2023-08-17T09:49:16;2.72;;;1.55;;
53010;SDS011;42803;55.762;38.084;2023-08-17T09:51:48;2.15;;;1.50;;
53010;SDS011;42803;55.762;38.084;2023-08-17T09:54:20;3.70;;;2.03;;
53010;SDS011;42803;55.762;38.084;2023-08-17T09:56:50;2.85;;;1.67;;
53010;SDS011;42803;55.762;38.084;2023-08-17T09:59:20;4.45;;;1.60;;
53010;SDS011;42803;55.762;38.084;2023-08-17T10:01:51;3.70;;;1.70;;
53010;SDS011;42803;55.762;38.084;2023-08-17T10:04:23;3.70;;;1.50;;
53010;SDS011;42803;55.762;38.084;2023-08-17T10:06:56;2.33;;;1.83;;
53010;SDS011;42803;55.762;38.084;2023-08-17T10:09:33;3.78;;;1.88;;
53010;SDS011;42803;55.762;38.084;2023-08-17T10:12:09;3.42;;;1.98;;
53010;SDS011;42803;55.762;38.084;2023-08-17T10:14:41;2.97;;;1.70;;
53010;SDS011;42803;55.762;38.084;2023-08-17T10:17:24;3.40;;;1.58;;
53010;SDS011;42803;55.762;38.084;2023-08-17T10:19:56;2.78;;;2.05;;
53010;SDS011;42803;55.762;38.084;2023-08-17T10:22:33;1.75;;;1.63;;
53010;SDS011;42803;55.762;38.084;2023-08-17T10:25:11;3.35;;;1.90;;
53010;SDS011;42803;55.762;38.084;2023-08-17T10:27:42;1.83;;;1.67;;
53010;SDS011;42803;55.762;38.084;2023-08-17T10:30:15;3.42;;;1.75;;
53010;SDS011;42803;55.762;38.084;2023-08-17T10:32:47;4.47;;;1.85;;
53010;SDS011;42803;55.762;38.084;2023-08-17T10:35:17;3.13;;;1.75;;
53010;SDS011;42803;55.762;38.084;2023-08-17T10:37:48;4.28;;;2.03;;
53010;SDS011;42803;55.762;38.084;2023-08-17T10:40:17;3.38;;;2.17;;
53010;SDS011;42803;55.762;38.084;2023-08-17T10:42:55;3.83;;;2.15;;
53010;SDS011;42803;55.762;38.084;2023-08-17T10:45:25;4.20;;;1.90;;
53010;SDS011;42803;55.762;38.084;2023-08-17T10:50:28;4.95;;;2.10;;
53010;SDS011;42803;55.762;38.084;2023-08-17T10:53:03;4.15;;;1.92;;
53010;SDS011;42803;55.762;38.084;2023-08-17T10:55:38;2.88;;;1.90;;
53010;SDS011;42803;55.762;38.084;2023-08-17T10:58:08;3.25;;;1.90;;
53010;SDS011;42803;55.762;38.084;2023-08-17T11:00:41;3.78;;;1.88;;
53010;SDS011;42803;55.762;38.084;2023-08-17T11:03:17;4.28;;;1.95;;
53010;SDS011;42803;55.762;38.084;2023-08-17T11:05:49;2.63;;;1.88;;
53010;SDS011;42803;55.762;38.084;2023-08-17T11:08:23;2.42;;;1.50;;
53010;SDS011;42803;55.762;38.084;2023-08-17T11:10:56;5.25;;;1.75;;
53010;SDS011;42803;55.762;38.084;2023-08-17T11:13:31;2.33;;;1.67;;
53010;SDS011;42803;55.762;38.084;2023-08-17T11:16:03;3.30;;;1.75;;
53010;SDS011;42803;55.762;38.084;2023-08-17T11:18:34;4.43;;;2.30;;
53010;SDS011;42803;55.762;38.084;2023-08-17T11:21:04;3.28;;;1.80;;
53010;SDS011;42803;55.762;38.084;2023-08-17T11:23:37;3.05;;;1.80;;
53010;SDS011;42803;55.762;38.084;2023-08-17T11:26:06;1.75;;;1.55;;
53010;SDS011;42803;55.762;38.084;2023-08-17T11:28:36;4.47;;;1.77;;
53010;SDS011;42803;55.762;38.084;2023-08-17T11:31:10;2.00;;;1.80;;
53010;SDS011;42803;55.762;38.084;2023-08-17T11:33:41;2.97;;;1.80;;
53010;SDS011;42803;55.762;38.084;2023-08-17T11:36:11;3.53;;;2.03;;
53010;SDS011;42803;55.762;38.084;2023-08-17T11:38:42;3.13;;;1.75;;
53010;SDS011;42803;55.762;38.084;2023-08-17T11:41:12;6.40;;;1.88;;
53010;SDS011;42803;55.762;38.084;2023-08-17T11:43:45;5.25;;;1.98;;
53010;SDS011;42803;55.762;38.084;2023-08-17T11:46:15;2.05;;;1.70;;
53010;SDS011;42803;55.762;38.084;2023-08-17T11:48:45;2.38;;;1.98;;
53010;SDS011;42803;55.762;38.084;2023-08-17T11:51:15;4.20;;;2.15;;
53010;SDS011;42803;55.762;38.084;2023-08-17T11:53:49;3.47;;;1.70;;
53010;SDS011;42803;55.762;38.084;2023-08-17T11:56:19;4.82;;;1.77;;
53010;SDS011;42803;55.762;38.084;2023-08-17T11:58:48;2.92;;;1.73;;
53010;SDS011;42803;55.762;38.084;2023-08-17T12:01:17;2.35;;;1.60;;
53010;SDS011;42803;55.762;38.084;2023-08-17T12:03:55;2.63;;;1.80;;
53010;SDS011;42803;55.762;38.084;2023-08-17T12:06:25;1.83;;;1.63;;
53010;SDS011;42803;55.762;38.084;2023-08-17T12:08:56;2.25;;;1.80;;
53010;SDS011;42803;55.762;38.084;2023-08-17T12:11:27;2.47;;;1.70;;
53010;SDS011;42803;55.762;38.084;2023-08-17T12:13:57;2.78;;;1.58;;
53010;SDS011;42803;55.762;38.084;2023-08-17T12:16:26;2.22;;;1.65;;
53010;SDS011;42803;55.762;38.084;2023-08-17T12:18:55;2.75;;;2.00;;
53010;SDS011;42803;55.762;38.084;2023-08-17T12:21:25;3.85;;;1.90;;
53010;SDS011;42803;55.762;38.084;2023-08-17T12:23:57;4.43;;;1.77;;
53010;SDS011;42803;55.762;38.084;2023-08-17T12:26:28;3.40;;;1.58;;
53010;SDS011;42803;55.762;38.084;2023-08-17T12:29:04;3.70;;;1.85;;
53010;SDS011;42803;55.762;38.084;2023-08-17T12:31:34;4.95;;;2.42;;
53010;SDS011;42803;55.762;38.084;2023-08-17T12:34:04;2.97;;;1.80;;
53010;SDS011;42803;55.762;38.084;2023-08-17T12:36:34;4.07;;;1.75;;
53010;SDS011;42803;55.762;38.084;2023-08-17T12:39:06;2.92;;;1.75;;
53010;SDS011;42803;55.762;38.084;2023-08-17T12:41:35;2.92;;;1.90;;
53010;SDS011;42803;55.762;38.084;2023-08-17T12:44:05;2.05;;;1.70;;
53010;SDS011;42803;55.762;38.084;2023-08-17T12:46:37;3.40;;;1.83;;
53010;SDS011;42803;55.762;38.084;2023-08-17T12:49:06;3.38;;;1.70;;
53010;SDS011;42803;55.762;38.084;2023-08-17T12:51:35;4.18;;;1.63;;
53010;SDS011;42803;55.762;38.084;2023-08-17T12:54:14;2.67;;;1.73;;
53010;SDS011;42803;55.762;38.084;2023-08-17T12:56:43;2.25;;;1.50;;
53010;SDS011;42803;55.762;38.084;2023-08-17T12:59:13;3.05;;;1.98;;
53010;SDS011;42803;55.762;38.084;2023-08-17T13:01:42;2.60;;;1.98;;
53010;SDS011;42803;55.762;38.084;2023-08-17T13:04:11;2.45;;;1.75;;
53010;SDS011;42803;55.762;38.084;2023-08-17T13:06:41;5.07;;;2.40;;
53010;SDS011;42803;55.762;38.084;2023-08-17T13:09:17;2.47;;;1.98;;
53010;SDS011;42803;55.762;38.084;2023-08-17T13:11:47;2.92;;;1.73;;
53010;SDS011;42803;55.762;38.084;2023-08-17T13:14:16;3.70;;;1.90;;
53010;SDS011;42803;55.762;38.084;2023-08-17T13:16:46;3.10;;;1.70;;
53010;SDS011;42803;55.762;38.084;2023-08-17T13:19:15;1.88;;;1.67;;
53010;SDS011;42803;55.762;38.084;2023-08-17T13:21:44;2.28;;;1.70;;
53010;SDS011;42803;55.762;38.084;2023-08-17T13:24:14;2.28;;;1.48;;
53010;SDS011;42803;55.762;38.084;2023-08-17T13:26:44;2.83;;;1.48;;
53010;SDS011;42803;55.762;38.084;2023-08-17T13:29:13;4.53;;;2.00;;
53010;SDS011;42803;55.762;38.084;2023-08-17T13:31:43;2.08;;;1.77;;
53010;SDS011;42803;55.762;38.084;2023-08-17T13:34:12;3.47;;;1.80;;
53010;SDS011;42803;55.762;38.084;2023-08-17T13:36:41;2.78;;;1.88;;
53010;SDS011;42803;55.762;38.084;2023-08-17T13:39:11;4.07;;;1.90;;
53010;SDS011;42803;55.762;38.084;2023-08-17T13:41:40;2.63;;;1.55;;
53010;SDS011;42803;55.762;38.084;2023-08-17T13:44:11;2.03;;;1.83;;
53010;SDS011;42803;55.762;38.084;2023-08-17T13:46:40;3.83;;;1.77;;
53010;SDS011;42803;55.762;38.084;2023-08-17T13:49:09;4.07;;;1.70;;
53010;SDS011;42803;55.762;38.084;2023-08-17T13:51:39;3.45;;;2.10;;
53010;SDS011;42803;55.762;38.084;2023-08-17T13:54:08;2.65;;;1.92;;
53010;SDS011;42803;55.762;38.084;2023-08-17T13:56:37;1.70;;;1.60;;
53010;SDS011;42803;55.762;38.084;2023-08-17T13:59:07;3.72;;;1.70;;
53010;SDS011;42803;55.762;38.084;2023-08-17T14:01:37;2.50;;;2.10;;
53010;SDS011;42803;55.762;38.084;2023-08-17T14:04:09;3.78;;;1.65;;
53010;SDS011;42803;55.762;38.084;2023-08-17T14:06:40;3.67;;;2.00;;
53010;SDS011;42803;55.762;38.084;2023-08-17T14:09:09;3.22;;;1.73;;
53010;SDS011;42803;55.762;38.084;2023-08-17T14:11:39;2.53;;;1.70;;
53010;SDS011;42803;55.762;38.084;2023-08-17T14:14:08;2.25;;;1.63;;
53010;SDS011;42803;55.762;38.084;2023-08-17T14:16:38;3.33;;;1.80;;
53010;SDS011;42803;55.762;38.084;2023-08-17T14:19:08;4.47;;;1.48;;
53010;SDS011;42803;55.762;38.084;2023-08-17T14:21:37;2.45;;;1.85;;
53010;SDS011;42803;55.762;38.084;2023-08-17T14:24:06;2.30;;;1.50;;
53010;SDS011;42803;55.762;38.084;2023-08-17T14:26:36;4.13;;;1.60;;
53010;SDS011;42803;55.762;38.084;2023-08-17T14:29:05;6.30;;;1.77;;
53010;SDS011;42803;55.762;38.084;2023-08-17T14:31:34;2.45;;;1.77;;
53010;SDS011;42803;55.762;38.084;2023-08-17T14:34:05;1.88;;;1.45;;
53010;SDS011;42803;55.762;38.084;2023-08-17T14:36:35;2.67;;;1.33;;
53010;SDS011;42803;55.762;38.084;2023-08-17T14:39:04;5.80;;;1.55;;
53010;SDS011;42803;55.762;38.084;2023-08-17T14:41:33;2.45;;;1.75;;
53010;SDS011;42803;55.762;38.084;2023-08-17T14:44:02;2.42;;;1.65;;
53010;SDS011;42803;55.762;38.084;2023-08-17T14:46:32;1.60;;;1.50;;
53010;SDS011;42803;55.762;38.084;2023-08-17T14:49:02;2.28;;;1.70;;
53010;SDS011;42803;55.762;38.084;2023-08-17T14:51:37;2.55;;;1.50;;